Terminal Aerodrome Forecast
Issued by NWS Goodland, KS

Home | Current Version | Previous Version | Text Only | Print | Product List | Glossary On
Versions: 1 2 3 4 5 6 7 8 9 10 11 12 13 14
000
FTUS43 KGLD 230500 RRA
TAFGLD
TAF
KGLD 230551Z 2306/2406 08007KT P6SM SKC
     FM231700 15014KT P6SM FEW250
     FM240100 17010KT P6SM SCT250=

USA.gov is the U.S. government's official web portal to all federal, state and local government web resources and services.